Latest Coastal Weather Observations for Cape Sorell

IDT60701

Issued at 11:22 pm EST Thursday 25 August 2016 (issued every 10 minutes, with the page automatically refreshed every 10 minutes)

About coastal observations | Map of coastal stations | Coastal observations for TAS | Marine services | Other Formats
Station Details ID: 097000 Name: CAPE SORELL Lat: -42.20 Lon: 145.17 Height: 19.3 m
Data from the previous 72 hours. | See also: Recent months at Cape Sorell
Date/Time
EST
Temp
°C
Wind Pressure Rain since
9am
mm
Weather Cloud Vis
km
Sea
Height
m
Swell
Dir  Spd
kts
Gust
kts
hPa Trend Height
m
Period
s
Dir
25/11:00pm 8.8 WSW 8 11 1015.7 - 2.2 - - - - - - -
25/10:30pm 8.1 W 6 8 1015.9 - 2.2 - - - - - - -
25/10:00pm 8.4 W 7 11 1016.1 - 2.2 - - - - - - -
25/09:30pm 8.7 WSW 12 16 1016.0 - 2.2 - - - - - - -
25/09:00pm 8.9 WSW 10 17 1016.0 - 2.2 - - - - - - -
25/08:30pm 9.1 WSW 14 18 1015.9 - 2.2 - - - - - - -
25/08:00pm 9.2 WSW 17 20 1015.6 - 2.2 - - - - - - -
25/07:30pm 8.7 W 9 14 1015.7 - 2.2 - - - - - - -
25/07:00pm 9.3 WSW 13 17 1015.3 - 2.2 - - - - - - -
25/06:30pm 9.4 SW 15 19 1015.1 - 2.2 - - - - - - -
25/06:00pm 9.4 SW 11 14 1014.8 - 2.2 - - - - - - -
25/05:30pm 9.3 SW 16 19 1014.5 - 2.2 - - - - - - -
25/05:00pm 9.8 SW 19 22 1014.1 - 2.2 - - - - - - -
25/04:30pm 10.6 SW 14 17 1014.0 - 2.2 - - - - - - -
25/04:00pm 10.2 SW 15 18 1013.8 - 2.2 - - - - - - -
25/03:30pm 10.4 SW 13 16 1013.8 - 2.2 - - - - - - -
25/03:00pm 10.5 SSW 15 17 1013.7 - 2.2 - - - - - - -
25/02:30pm 10.1 SW 16 18 1013.6 - 2.2 - - - - - - -
25/02:00pm 9.7 SW 16 18 1013.4 - 2.2 - - - - - - -
25/01:30pm 9.5 SSW 17 20 1013.4 - 2.2 - - - - - - -
25/01:00pm 9.1 SSW 19 22 1013.4 - 2.2 - - - - - - -
25/12:45pm 9.4 SSW 11 18 1013.5 - 2.2 - - - - - - -
25/12:30pm 9.0 S 5 7 1013.8 - 2.2 - - - - - - -
25/12:00pm 9.2 SSW 4 6 1013.7 - 2.0 Recent precip. - - - - - -
25/11:30am 8.7 WSW 5 6 1013.7 - 1.0 - - - - - - -
25/11:00am 9.4 WSW 3 4 1013.6 - 0.0 - - - - - - -
25/10:30am 9.7 NW 3 4 1013.4 - 0.0 - - - - - - -
25/10:00am 9.5 N 3 5 1013.2 - 0.0 - - - - - - -
25/09:30am 9.4 N 3 4 1013.0 - 0.0 - - - - - - -
25/09:00am 8.0 N 3 4 1013.0 - 15.2 Recent precip. - - - - - -
25/08:30am 7.0 NE 4 5 1012.8 - 15.2 - - - - - - -
25/08:00am 6.9 NNE 6 8 1012.6 - 15.0 - - - - - - -
25/07:30am 6.6 NE 5 7 1012.5 - 14.8 - - - - - - -
25/07:00am 6.6 NE 5 6 1012.2 - 13.8 - - - - - - -
25/06:30am 6.4 NE 3 5 1012.0 - 13.4 - - - - - - -
25/06:00am 6.2 NE 5 6 1011.7 - 12.4 Recent precip. - - - - - -
25/05:30am 6.0 ENE 4 6 1011.5 - 12.2 - - - - - - -
25/05:00am 6.2 ENE 6 8 1011.3 - 12.0 - - - - - - -
25/04:30am 6.7 NNE 5 6 1011.1 - 11.0 - - - - - - -
25/04:00am 6.6 NE 6 7 1010.9 - 10.6 - - - - - - -
25/03:30am 6.0 ENE 6 7 1010.8 - 10.6 - - - - - - -
25/03:00am 6.1 NNE 2 5 1010.8 - 10.6 - - - - - - -
25/02:30am 5.3 ENE 5 6 1011.0 - 10.6 - - - - - - -
25/02:00am 5.2 ENE 7 8 1011.0 - 10.6 - - - - - - -
25/01:30am 5.2 ENE 6 7 1011.3 - 10.6 - - - - - - -
25/01:00am 5.7 E 7 7 1011.3 - 10.6 - - - - - - -
25/12:30am 6.0 SE 3 5 1011.3 - 10.4 - - - - - - -
25/12:00am 6.5 SW 2 2 1011.5 - 10.4 Recent precip. - - - - - -
 
Date/Time
EST
Temp
°C
Wind Pressure Rain since
9am
mm
Weather Cloud Vis
km
Sea
Height
m
Swell
Dir  Spd
kts
Gust
kts
hPa Trend Height
m
Period
s
Dir
24/11:30pm 6.6 S 2 5 1011.5 - 9.6 - - - - - - -
24/11:00pm 7.1 NE 5 6 1011.5 - 6.8 - - - - - - -
24/10:30pm 7.3 NE 5 6 1011.6 - 6.8 - - - - - - -
24/10:00pm 7.0 NE 4 5 1011.8 - 6.8 - - - - - - -
24/09:30pm 7.2 NE 4 6 1012.0 - 6.8 - - - - - - -
24/09:00pm 6.9 NE 4 5 1012.2 - 6.8 Recent precip. - - - - - -
24/08:30pm 6.7 ENE 5 7 1012.2 - 6.8 - - - - - - -
24/08:00pm 6.7 ESE 3 5 1012.4 - 6.6 - - - - - - -
24/07:30pm 6.5 E 5 5 1012.3 - 6.0 - - - - - - -
24/07:00pm 6.7 E 5 6 1012.2 - 6.0 - - - - - - -
24/06:30pm 6.9 SE 5 8 1012.3 - 5.6 - - - - - - -
24/06:00pm 7.6 S 8 15 1012.1 - 3.8 Rain - - - - - -
24/05:30pm 7.6 SE 4 5 1011.8 - 2.2 - - - - - - -
24/05:00pm 8.4 SSW 9 12 1011.8 - 2.2 - - - - - - -
24/04:30pm 8.8 SSW 8 10 1011.9 - 1.2 - - - - - - -
24/04:00pm 8.8 SW 6 7 1011.9 - 0.8 - - - - - - -
24/03:30pm 8.6 WSW 10 14 1012.0 - 0.6 - - - - - - -
24/03:00pm 9.2 W 7 9 1012.2 - 0.6 - - - - - - -
24/02:30pm 9.3 WSW 10 13 1012.4 - 0.6 - - - - - - -
24/02:00pm 9.0 WSW 10 13 1012.5 - 0.6 - - - - - - -
24/01:30pm 9.3 SW 7 11 1012.8 - 0.6 - - - - - - -
24/01:00pm 9.6 SW 7 9 1013.1 - 0.4 - - - - - - -
24/12:30pm 8.3 SW 16 22 1013.5 - 0.2 - - - - - - -
24/12:29pm 8.5 SW 16 22 1013.4 - 0.2 - - - - - - -
24/12:22pm 9.7 SW 13 22 1013.3 - 0.0 - - - - - - -
24/12:00pm 10.9 SW 8 10 1013.7 - 0.0 - - - - - - -
24/11:30am 9.1 WSW 6 10 1014.2 - 0.0 - - - - - - -
24/11:00am 9.4 SSW 8 10 1014.4 - 0.0 - - - - - - -
24/10:30am 9.5 SW 15 21 1014.2 - 0.0 - - - - - - -
24/10:00am 8.6 SW 12 13 1014.5 - 0.0 - - - - - - -
24/09:30am 8.6 SW 14 21 1014.5 - 0.0 - - - - - - -
24/09:28am 8.9 SW 12 21 1014.6 - 0.0 - - - - - - -
24/09:00am 8.4 SSW 9 11 1015.0 - 2.8 Recent precip. - - - - - -
24/08:30am 8.0 SW 19 25 1015.0 - 2.6 - - - - - - -
24/08:21am 8.8 SSW 16 22 1014.8 - 2.0 - - - - - - -
24/08:00am 8.2 SW 10 13 1015.0 - 2.0 - - - - - - -
24/07:30am 8.2 SSW 19 23 1014.8 - 2.0 - - - - - - -
24/07:00am 8.7 SW 14 17 1014.7 - 2.0 - - - - - - -
24/06:30am 8.4 SW 14 17 1014.5 - 2.0 - - - - - - -
24/06:00am 8.2 SW 15 18 1014.6 - 2.0 - - - - - - -
24/05:30am 8.6 SSW 16 21 1014.6 - 2.0 - - - - - - -
24/05:00am 8.3 SSW 11 17 1014.5 - 2.0 - - - - - - -
24/04:30am 8.9 SSW 18 26 1014.3 - 1.8 - - - - - - -
24/04:00am 8.7 WSW 16 19 1014.3 - 1.6 - - - - - - -
24/03:30am 8.5 WSW 16 18 1014.4 - 1.6 - - - - - - -
24/03:00am 8.8 SW 12 15 1014.7 - 1.6 - - - - - - -
24/02:30am 8.4 SW 15 17 1015.1 - 1.6 - - - - - - -
24/02:00am 7.7 WSW 13 20 1015.5 - 1.6 - - - - - - -
24/01:30am 8.1 SW 14 16 1015.6 - 1.4 - - - - - - -
24/01:00am 8.8 W 11 19 1015.5 - 1.4 - - - - - - -
24/12:30am 7.8 W 8 13 1016.1 - 0.8 - - - - - - -
24/12:00am 8.7 W 12 16 1015.9 - 0.4 - - - - - - -
 
Date/Time
EST
Temp
°C
Wind Pressure Rain since
9am
mm
Weather Cloud Vis
km
Sea
Height
m
Swell
Dir  Spd
kts
Gust
kts
hPa Trend Height
m
Period
s
Dir
23/11:30pm 8.8 WSW 16 18 1015.9 - 0.4 - - - - - - -
23/11:00pm 8.9 WSW 15 18 1016.0 - 0.4 - - - - - - -
23/10:30pm 8.9 WSW 14 17 1016.2 - 0.4 - - - - - - -
23/10:00pm 8.2 SSW 9 12 1016.4 - 0.4 - - - - - - -
23/09:30pm 8.9 SW 16 20 1016.2 - 0.4 - - - - - - -
23/09:27pm 8.8 SW 15 18 1016.2 - 0.4 - - - - - - -
23/09:00pm 8.4 SSW 10 16 1016.3 - 0.4 Rain - - - - - -
23/08:30pm 9.2 WSW 12 14 1016.2 - 0.0 - - - - - - -
23/08:00pm 9.3 SW 14 16 1016.1 - 0.0 - - - - - - -
23/07:30pm 9.3 WSW 13 16 1016.1 - 0.0 - - - - - - -
23/07:00pm 9.1 SW 14 17 1016.1 - 0.0 - - - - - - -
23/06:30pm 9.1 WSW 12 14 1016.1 - 0.0 - - - - - - -
23/06:00pm 8.7 WSW 7 9 1016.1 - 0.0 - - - - - - -
23/05:30pm 9.0 WSW 9 14 1015.9 - 0.0 - - - - - - -
23/05:00pm 9.9 WSW 9 13 1015.7 - 0.0 - - - - - - -
23/04:30pm 9.9 W 7 9 1015.6 - 0.0 - - - - - - -
23/04:00pm 10.8 WSW 6 8 1015.4 - 0.0 - - - - - - -
23/03:30pm 10.4 SW 6 7 1015.3 - 0.0 - - - - - - -
23/03:00pm 9.8 SW 9 11 1015.3 - 0.0 - - - - - - -
23/02:30pm 11.7 WSW 9 12 1015.3 - 0.0 - - - - - - -
23/02:00pm 11.7 SW 8 10 1015.4 - 0.0 - - - - - - -
23/01:30pm 10.7 SSW 3 4 1015.6 - 0.0 - - - - - - -
23/01:00pm 10.3 S 8 13 1015.7 - 0.0 - - - - - - -
23/12:30pm 9.5 SW 10 16 1015.8 - 0.0 - - - - - - -
23/12:00pm 10.2 SSW 5 7 1016.0 - 0.0 - - - - - - -
23/11:30am 11.2 SSW 9 12 1016.1 - 0.0 - - - - - - -
23/11:00am 10.1 WSW 11 14 1016.2 - 0.0 - - - - - - -
23/10:30am 10.7 WSW 11 14 1016.1 - 0.0 - - - - - - -
23/10:00am 10.2 SSW 5 9 1016.2 - 0.0 - - - - - - -
23/09:30am 9.6 SW 10 13 1016.2 - 0.0 - - - - - - -
23/09:00am 9.3 SW 12 15 1016.0 - 0.2 - - - - - - -
23/08:30am 9.4 SW 11 13 1015.8 - 0.2 - - - - - - -
23/08:00am 8.8 WSW 15 19 1015.5 - 0.2 - - - - - - -
23/07:30am 8.9 SW 14 18 1015.3 - 0.2 - - - - - - -
23/07:00am 8.6 WSW 16 20 1015.0 - 0.2 - - - - - - -
23/06:30am 8.7 WSW 14 19 1014.7 - 0.2 - - - - - - -
23/06:00am 8.7 WSW 12 14 1014.6 - 0.2 - - - - - - -
23/05:30am 8.5 WSW 11 16 1014.5 - 0.2 - - - - - - -
23/05:00am 8.1 WNW 9 13 1014.5 - 0.2 - - - - - - -
23/04:30am 8.3 W 11 14 1014.3 - 0.2 - - - - - - -
23/04:00am 8.4 W 11 15 1014.2 - 0.2 - - - - - - -
23/03:30am 8.6 WSW 11 15 1014.2 - 0.2 - - - - - - -
23/03:00am 8.7 W 9 14 1014.3 - 0.2 - - - - - - -
23/02:30am 7.7 WSW 3 5 1014.4 - 0.2 - - - - - - -
23/02:00am 8.7 WSW 16 19 1014.4 - 0.2 - - - - - - -
23/01:30am 8.4 W 9 13 1014.6 - 0.2 - - - - - - -
23/01:00am 8.5 WSW 14 17 1014.4 - 0.2 - - - - - - -
23/12:30am 8.3 WSW 10 12 1014.5 - 0.2 - - - - - - -
23/12:00am 8.0 WSW 8 11 1014.4 - 0.2 Recent precip. - - - - - -
 
Date/Time
EST
Temp
°C
Wind Pressure Rain since
9am
mm
Weather Cloud Vis
km
Sea
Height
m
Swell
Dir  Spd
kts
Gust
kts
hPa Trend Height
m
Period
s
Dir
22/11:30pm 8.0 W 12 17 1014.3 - 0.2 - - - - - - -

Other Formats:

Comma delimited format used in spreadsheet applications
http://www.bom.gov.au/fwo/IDT60701/IDT60701.94974.axf

JavaScript Object Notation format (JSON) in row-major order
http://www.bom.gov.au/fwo/IDT60701/IDT60701.94974.json